createdAt,value
2023-01-17T00:03:28.937Z,4.41
2023-01-17T00:08:49.097Z,4.43
2023-01-17T00:13:50.458Z,4.50
2023-01-17T00:19:10.274Z,4.61
2023-01-17T00:24:29.995Z,4.73
2023-01-17T00:29:31.318Z,4.91
2023-01-17T00:34:32.649Z,5.08
2023-01-17T00:39:34.133Z,5.28
2023-01-17T00:44:54.057Z,5.39
2023-01-17T00:50:13.888Z,5.52
2023-01-17T00:55:33.711Z,5.63
2023-01-17T01:00:53.824Z,5.71
2023-01-17T01:06:13.990Z,5.78
2023-01-17T01:11:35.252Z,5.81
2023-01-17T01:16:55.204Z,5.82
2023-01-17T01:22:15.285Z,5.85
2023-01-17T01:27:35.109Z,5.88
2023-01-17T01:32:55.006Z,5.88
2023-01-17T01:37:56.347Z,5.91
2023-01-17T01:42:59.599Z,5.95
2023-01-17T01:48:06.655Z,5.99
2023-01-17T01:53:08.042Z,6.03
2023-01-17T01:58:18.685Z,6.04
2023-01-17T02:03:22.747Z,6.05
2023-01-17T02:08:24.340Z,6.04
2023-01-17T02:13:26.799Z,6.03
2023-01-17T02:18:31.193Z,6.04
2023-01-17T02:23:39.993Z,6.05
2023-01-17T02:29:02.205Z,6.05
2023-01-17T02:34:10.265Z,6.02
2023-01-17T02:39:11.571Z,6.02
2023-01-17T02:44:16.109Z,6.00
2023-01-17T02:49:18.725Z,6.08
2023-01-17T02:54:38.956Z,6.09
2023-01-17T02:59:47.245Z,6.01
2023-01-17T03:04:54.011Z,6.01
2023-01-17T03:09:59.899Z,5.97
2023-01-17T03:15:01.310Z,5.91
2023-01-17T03:20:02.668Z,5.95
2023-01-17T03:25:04.166Z,5.96
2023-01-17T03:30:05.990Z,5.97
2023-01-17T03:35:07.496Z,5.89
2023-01-17T03:40:09.056Z,5.78
2023-01-17T03:45:10.655Z,5.74
2023-01-17T03:50:12.905Z,5.70
2023-01-17T03:55:14.269Z,5.67
2023-01-17T04:00:15.737Z,5.64
2023-01-17T04:05:17.141Z,5.66
2023-01-17T04:10:18.535Z,5.60
2023-01-17T04:15:19.958Z,5.50
2023-01-17T04:20:37.548Z,5.47
2023-01-17T04:25:38.912Z,5.42
2023-01-17T04:30:40.395Z,5.46
2023-01-17T04:35:41.751Z,5.47
2023-01-17T04:40:43.100Z,5.45
2023-01-17T04:45:44.705Z,5.43
2023-01-17T04:50:46.034Z,5.43
2023-01-17T04:55:47.352Z,5.43
2023-01-17T05:00:50.897Z,5.50
2023-01-17T05:05:52.284Z,5.55
2023-01-17T05:10:53.872Z,5.59
2023-01-17T05:15:56.303Z,5.63
2023-01-17T05:21:01.608Z,5.63
2023-01-17T05:26:02.955Z,5.62
2023-01-17T05:31:04.623Z,5.61
2023-01-17T05:36:06.200Z,5.61
2023-01-17T05:41:07.598Z,5.54
2023-01-17T05:46:09.052Z,5.51
2023-01-17T05:51:10.395Z,5.48
2023-01-17T05:56:11.714Z,5.46
2023-01-17T06:01:13.156Z,5.49
2023-01-17T06:06:14.574Z,5.49
2023-01-17T06:11:15.914Z,5.37
2023-01-17T06:16:17.400Z,5.26
2023-01-17T06:21:19.646Z,5.16
2023-01-17T06:26:21.029Z,5.03
2023-01-17T06:31:22.468Z,4.93
2023-01-17T06:36:24.312Z,4.83
2023-01-17T06:41:28.437Z,4.72
2023-01-17T06:46:29.827Z,4.57
2023-01-17T06:51:31.192Z,4.50
2023-01-17T06:56:32.867Z,4.56
2023-01-17T07:01:34.328Z,4.58
2023-01-17T07:06:36.779Z,4.47
2023-01-17T07:11:38.115Z,4.31
2023-01-17T07:16:39.452Z,4.23
2023-01-17T07:21:40.849Z,4.13
2023-01-17T07:26:42.226Z,4.10
2023-01-17T07:31:43.770Z,4.08
2023-01-17T07:36:45.172Z,4.09
2023-01-17T07:41:47.264Z,4.09
2023-01-17T07:46:48.639Z,4.01
2023-01-17T07:51:50.004Z,3.98
2023-01-17T07:56:51.364Z,3.98
2023-01-17T08:01:53.136Z,4.00
2023-01-17T08:06:55.003Z,4.00
2023-01-17T08:11:56.595Z,4.00
2023-01-17T08:17:05.082Z,4.04
2023-01-17T08:22:06.589Z,4.11
2023-01-17T08:27:08.959Z,4.13
2023-01-17T08:32:10.356Z,4.16
2023-01-17T08:37:11.800Z,4.23
2023-01-17T08:42:13.257Z,4.26
2023-01-17T08:47:14.622Z,4.30
2023-01-17T08:52:15.963Z,4.33
2023-01-17T08:57:17.516Z,4.39
2023-01-17T09:02:19.913Z,4.46
2023-01-17T09:07:21.502Z,4.44
2023-01-17T09:12:22.948Z,4.34
2023-01-17T09:17:24.331Z,4.35
2023-01-17T09:22:26.073Z,4.38
2023-01-17T09:27:27.655Z,4.45
2023-01-17T09:32:29.032Z,4.47
2023-01-17T09:37:30.404Z,4.48
2023-01-17T09:42:34.625Z,4.59
2023-01-17T09:47:39.186Z,4.68
2023-01-17T09:52:40.803Z,4.81
2023-01-17T09:58:00.190Z,4.90
2023-01-17T10:03:13.352Z,4.89
2023-01-17T10:08:20.701Z,4.93
2023-01-17T10:13:43.731Z,4.92
2023-01-17T10:18:45.525Z,4.94
2023-01-17T10:23:49.675Z,5.03
2023-01-17T10:28:52.934Z,5.14
2023-01-17T10:33:55.994Z,5.27
2023-01-17T10:39:00.418Z,5.35
2023-01-17T10:44:20.718Z,5.38
2023-01-17T10:49:23.290Z,5.37
2023-01-17T10:54:43.236Z,5.35
2023-01-17T10:59:45.161Z,5.37
2023-01-17T11:04:48.935Z,5.52
2023-01-17T11:09:51.474Z,5.66
2023-01-17T11:15:11.131Z,5.89
2023-01-17T11:20:12.466Z,5.97
2023-01-17T11:25:20.031Z,6.09
2023-01-17T11:30:21.942Z,6.33
2023-01-17T11:35:28.116Z,6.57
2023-01-17T11:40:32.437Z,6.78
2023-01-17T11:45:34.396Z,6.88
2023-01-17T11:50:38.749Z,7.03
2023-01-17T11:55:40.704Z,7.07
2023-01-17T12:00:45.867Z,6.95
2023-01-17T12:05:58.768Z,6.73
2023-01-17T12:11:05.799Z,6.47
2023-01-17T12:16:25.915Z,6.27
2023-01-17T12:21:46.782Z,6.12
2023-01-17T12:27:07.526Z,6.08
2023-01-17T12:32:22.370Z,6.27
2023-01-17T12:37:34.580Z,6.41
2023-01-17T12:42:38.618Z,6.35
2023-01-17T12:47:51.832Z,6.22
2023-01-17T12:53:11.822Z,6.03
2023-01-17T12:58:20.391Z,5.76
2023-01-17T13:03:45.153Z,5.60
2023-01-17T13:08:49.625Z,5.55
2023-01-17T13:13:52.295Z,5.51
2023-01-17T13:18:55.481Z,5.52
2023-01-17T13:23:59.713Z,5.55
2023-01-17T13:29:09.834Z,5.55
2023-01-17T13:34:13.987Z,5.63
2023-01-17T13:39:24.540Z,6.45
2023-01-17T13:44:27.578Z,7.67
2023-01-17T13:49:29.097Z,8.63
2023-01-17T13:54:34.016Z,8.27
2023-01-17T13:59:35.837Z,7.41
2023-01-17T14:04:56.555Z,6.71
2023-01-17T14:09:58.061Z,6.08
2023-01-17T14:15:00.942Z,5.71
2023-01-17T14:20:05.568Z,5.50
2023-01-17T14:25:14.929Z,5.34
2023-01-17T14:30:25.662Z,5.01
2023-01-17T14:35:29.715Z,4.80
2023-01-17T14:40:35.718Z,4.70
2023-01-17T14:45:37.760Z,4.62
2023-01-17T14:50:40.058Z,4.62
2023-01-17T14:55:47.269Z,4.57
2023-01-17T15:00:49.982Z,4.48
2023-01-17T15:05:52.944Z,4.39
2023-01-17T15:11:00.113Z,4.24
2023-01-17T15:16:06.462Z,4.14
2023-01-17T15:21:10.907Z,4.07
2023-01-17T15:26:16.604Z,4.00
2023-01-17T15:31:21.972Z,3.99
2023-01-17T15:36:26.394Z,4.03
2023-01-17T15:41:35.358Z,4.10
2023-01-17T15:46:39.931Z,4.14
2023-01-17T15:51:45.940Z,4.10
2023-01-17T15:56:47.407Z,4.03
2023-01-17T16:01:56.001Z,3.98
2023-01-17T16:07:08.790Z,3.86
2023-01-17T16:12:10.162Z,3.78
2023-01-17T16:17:15.322Z,3.82
2023-01-17T16:22:16.665Z,3.89
2023-01-17T16:27:18.007Z,3.98
2023-01-17T16:32:19.345Z,3.99
2023-01-17T16:37:22.164Z,4.03
2023-01-17T16:42:23.685Z,4.03
2023-01-17T16:47:25.073Z,3.88
2023-01-17T16:52:26.619Z,3.69
2023-01-17T16:57:28.213Z,3.49
2023-01-17T17:02:30.444Z,3.32
2023-01-17T17:07:31.884Z,3.17
2023-01-17T17:12:33.313Z,3.10
2023-01-17T17:17:38.684Z,3.02
2023-01-17T17:22:44.105Z,2.95
2023-01-17T17:27:45.641Z,2.91
2023-01-17T17:32:47.520Z,2.82
2023-01-17T17:37:48.893Z,2.76
2023-01-17T17:42:50.300Z,2.71
2023-01-17T17:47:51.885Z,2.67
2023-01-17T17:52:53.319Z,2.62
2023-01-17T17:57:55.452Z,2.57
2023-01-17T18:02:56.913Z,2.53
2023-01-17T18:07:58.243Z,2.49
2023-01-17T18:12:59.582Z,2.44
2023-01-17T18:18:01.004Z,2.36
2023-01-17T18:23:02.538Z,2.28
2023-01-17T18:28:04.417Z,2.18
2023-01-17T18:33:06.109Z,2.14
2023-01-17T18:38:07.488Z,2.09
2023-01-17T18:43:08.842Z,2.04
2023-01-17T18:48:11.834Z,1.98
2023-01-17T18:53:13.246Z,1.94
2023-01-17T18:58:14.578Z,1.88
2023-01-17T19:03:18.800Z,1.85
2023-01-17T19:08:20.387Z,1.82
2023-01-17T19:13:21.737Z,1.79
2023-01-17T19:18:23.095Z,1.74
2023-01-17T19:23:24.655Z,1.73
2023-01-17T19:28:26.086Z,1.71
2023-01-17T19:33:27.585Z,1.70
2023-01-17T19:38:29.326Z,1.68
2023-01-17T19:43:30.687Z,1.63
2023-01-17T19:48:32.068Z,1.59
2023-01-17T19:53:33.449Z,1.56
2023-01-17T19:58:35.283Z,1.54
2023-01-17T20:03:37.588Z,1.54
2023-01-17T20:08:38.953Z,1.52
2023-01-17T20:13:40.962Z,1.50
2023-01-17T20:18:42.620Z,1.55
2023-01-17T20:23:46.839Z,1.58
2023-01-17T20:28:49.393Z,1.57
2023-01-17T20:33:52.685Z,1.52
2023-01-17T20:38:54.482Z,1.47
2023-01-17T20:43:56.992Z,1.46
2023-01-17T20:49:00.427Z,1.44
2023-01-17T20:54:04.734Z,1.43
2023-01-17T20:59:12.333Z,1.44
2023-01-17T21:04:14.528Z,1.46
2023-01-17T21:09:17.051Z,1.47
2023-01-17T21:14:18.505Z,1.45
2023-01-17T21:19:23.728Z,1.49
2023-01-17T21:24:25.103Z,1.49
2023-01-17T21:29:29.088Z,1.52
2023-01-17T21:34:32.533Z,1.56
2023-01-17T21:39:33.889Z,1.60
2023-01-17T21:44:38.229Z,1.68
2023-01-17T21:49:39.712Z,1.70
2023-01-17T21:54:59.824Z,1.74
2023-01-17T22:00:01.352Z,1.72
2023-01-17T22:05:02.857Z,1.72
2023-01-17T22:10:04.593Z,1.75
2023-01-17T22:15:06.395Z,1.76
2023-01-17T22:20:11.414Z,1.82
2023-01-17T22:25:12.771Z,1.88
2023-01-17T22:30:14.246Z,1.94
2023-01-17T22:35:15.608Z,1.92
2023-01-17T22:40:17.075Z,1.98
2023-01-17T22:45:19.916Z,2.02
2023-01-17T22:50:23.323Z,2.05
2023-01-17T22:55:24.740Z,2.07
2023-01-17T23:00:26.119Z,2.07
2023-01-17T23:05:27.441Z,2.07
2023-01-17T23:10:48.992Z,2.11
2023-01-17T23:16:08.890Z,2.16
2023-01-17T23:21:10.236Z,2.18
2023-01-17T23:26:11.683Z,2.18
2023-01-17T23:31:13.044Z,2.18
2023-01-17T23:36:14.417Z,2.21
2023-01-17T23:41:34.570Z,2.30
2023-01-17T23:46:35.972Z,2.44
2023-01-17T23:51:37.347Z,2.57
2023-01-17T23:56:38.672Z,2.64
